createdAt,value
2019-04-29T00:00:34.670Z,101969.47
2019-04-29T00:01:38.182Z,101967.62
2019-04-29T00:02:40.542Z,101962.77
2019-04-29T00:03:42.763Z,101967.23
2019-04-29T00:04:45.210Z,101963.69
2019-04-29T00:05:47.387Z,101959.00
2019-04-29T00:06:49.601Z,101969.84
2019-04-29T00:07:51.813Z,101961.08
2019-04-29T00:08:54.053Z,101968.92
2019-04-29T00:09:56.252Z,101967.62
2019-04-29T00:10:58.466Z,101961.08
2019-04-29T00:12:00.673Z,101957.16
2019-04-29T00:13:04.692Z,101961.84
2019-04-29T00:14:06.899Z,101959.23
2019-04-29T00:15:22.571Z,101960.53
2019-04-29T00:16:40.353Z,101960.15
2019-04-29T00:17:52.133Z,101955.30
2019-04-29T00:19:22.165Z,101953.61
2019-04-29T00:20:46.336Z,101956.61
2019-04-29T00:21:48.880Z,101957.92
2019-04-29T00:22:51.167Z,101952.14
2019-04-29T00:24:03.710Z,101954.38
2019-04-29T00:24:57.362Z,101953.45
2019-04-29T00:25:59.803Z,101950.45
2019-04-29T00:27:02.018Z,101951.22
2019-04-29T00:28:04.257Z,101954.76
2019-04-29T00:29:06.477Z,101952.69
2019-04-29T00:30:10.783Z,101948.98
2019-04-29T00:31:13.027Z,101951.22
2019-04-29T00:32:15.237Z,101948.98
2019-04-29T00:33:17.550Z,101952.91
2019-04-29T00:34:20.016Z,101951.98
2019-04-29T00:35:22.232Z,101953.84
2019-04-29T00:36:26.173Z,101959.99
2019-04-29T00:37:50.452Z,101960.75
2019-04-29T00:39:14.110Z,101959.06
2019-04-29T00:40:41.994Z,101958.14
2019-04-29T00:42:01.569Z,101958.14
2019-04-29T00:43:28.688Z,101962.06
2019-04-29T00:44:30.930Z,101965.06
2019-04-29T00:45:33.274Z,101962.83
2019-04-29T00:46:35.484Z,101964.67
2019-04-29T00:47:37.717Z,101960.22
2019-04-29T00:48:39.930Z,101965.22
2019-04-29T00:49:42.154Z,101960.75
2019-04-29T00:50:44.376Z,101967.67
2019-04-29T00:51:46.578Z,101968.44
2019-04-29T00:52:48.852Z,101969.36
2019-04-29T00:53:52.657Z,101969.75
2019-04-29T00:55:00.946Z,101965.83
2019-04-29T00:56:04.074Z,101961.91
2019-04-29T00:57:06.300Z,101960.98
2019-04-29T00:58:08.497Z,101962.83
2019-04-29T00:59:11.903Z,101961.52
2019-04-29T01:00:18.976Z,101965.83
2019-04-29T01:01:24.259Z,101964.14
2019-04-29T01:02:26.482Z,101964.14
2019-04-29T01:03:28.690Z,101963.21
2019-04-29T01:04:30.901Z,101957.59
2019-04-29T01:05:33.148Z,101961.36
2019-04-29T01:06:35.391Z,101962.28
2019-04-29T01:07:37.588Z,101960.05
2019-04-29T01:08:39.794Z,101963.05
2019-04-29T01:09:41.988Z,101965.28
2019-04-29T01:10:44.320Z,101970.52
2019-04-29T01:11:46.626Z,101964.36
2019-04-29T01:12:48.830Z,101966.05
2019-04-29T01:13:51.050Z,101965.28
2019-04-29T01:14:53.280Z,101969.20
2019-04-29T01:15:55.516Z,101970.52
2019-04-29T01:16:57.729Z,101972.58
2019-04-29T01:17:59.944Z,101965.28
2019-04-29T01:19:03.913Z,101965.28
2019-04-29T01:20:06.014Z,101965.28
2019-04-29T01:21:08.330Z,101963.81
2019-04-29T01:22:10.544Z,101961.74
2019-04-29T01:23:12.738Z,101967.73
2019-04-29T01:24:14.969Z,101964.36
2019-04-29T01:25:17.194Z,101961.97
2019-04-29T01:26:30.510Z,101965.50
2019-04-29T01:27:38.366Z,101973.51
2019-04-29T01:28:49.410Z,101971.28
2019-04-29T01:29:51.842Z,101972.04
2019-04-29T01:30:54.071Z,101969.42
2019-04-29T01:31:56.196Z,101972.04
2019-04-29T01:32:58.437Z,101974.66
2019-04-29T01:34:06.517Z,101975.58
2019-04-29T01:35:08.895Z,101971.46
2019-04-29T01:36:45.425Z,101973.34
2019-04-29T01:37:47.650Z,101973.73
2019-04-29T01:38:50.570Z,101971.11
2019-04-29T01:40:00.715Z,101969.42
2019-04-29T01:41:09.210Z,101972.77
2019-04-29T01:42:17.775Z,101971.11
2019-04-29T01:43:19.966Z,101966.23
2019-04-29T01:44:22.431Z,101965.89
2019-04-29T01:45:24.648Z,101963.07
2019-04-29T01:46:26.857Z,101968.84
2019-04-29T01:47:29.065Z,101964.00
2019-04-29T01:48:31.263Z,101964.00
2019-04-29T01:49:33.495Z,101969.23
2019-04-29T01:50:35.709Z,101966.23
2019-04-29T01:51:37.966Z,101965.30
2019-04-29T01:52:40.177Z,101966.23
2019-04-29T01:53:42.469Z,101964.00
2019-04-29T01:54:44.603Z,101967.92
2019-04-29T01:55:46.806Z,101971.46
2019-04-29T01:56:49.061Z,101970.16
2019-04-29T01:57:51.287Z,101969.61
2019-04-29T01:58:53.479Z,101968.69
2019-04-29T01:59:55.695Z,101970.92
2019-04-29T02:00:57.924Z,101976.14
2019-04-29T02:02:00.137Z,101968.69
2019-04-29T02:03:02.336Z,101969.99
2019-04-29T02:04:04.563Z,101968.69
2019-04-29T02:05:06.777Z,101965.14
2019-04-29T02:06:09.005Z,101974.30
2019-04-29T02:07:11.210Z,101970.38
2019-04-29T02:08:13.444Z,101971.84
2019-04-29T02:09:23.148Z,101967.38
2019-04-29T02:10:30.051Z,101975.22
2019-04-29T02:11:32.272Z,101967.59
2019-04-29T02:12:34.487Z,101966.07
2019-04-29T02:13:36.695Z,101965.14
2019-04-29T02:14:38.929Z,101967.22
2019-04-29T02:15:41.161Z,101964.22
2019-04-29T02:16:43.368Z,101962.53
2019-04-29T02:17:45.571Z,101959.37
2019-04-29T02:18:47.784Z,101957.14
2019-04-29T02:19:50.159Z,101961.06
2019-04-29T02:20:52.365Z,101958.45
2019-04-29T02:22:13.526Z,101957.14
2019-04-29T02:23:30.861Z,101956.22
2019-04-29T02:24:33.881Z,101953.98
2019-04-29T02:25:39.165Z,101961.98
2019-04-29T02:26:41.415Z,101968.91
2019-04-29T02:27:43.615Z,101958.83
2019-04-29T02:28:45.815Z,101971.14
2019-04-29T02:29:48.029Z,101968.52
2019-04-29T02:30:50.531Z,101966.29
2019-04-29T02:31:52.857Z,101969.83
2019-04-29T02:32:55.057Z,101966.29
2019-04-29T02:33:57.264Z,101963.67
2019-04-29T02:34:59.471Z,101964.60
2019-04-29T02:36:01.681Z,101962.37
2019-04-29T02:37:05.451Z,101969.29
2019-04-29T02:38:09.618Z,101965.75
2019-04-29T02:39:26.329Z,101972.83
2019-04-29T02:40:35.618Z,101967.05
2019-04-29T02:41:54.190Z,101967.05
2019-04-29T02:43:01.303Z,101969.67
2019-04-29T02:44:05.062Z,101972.28
2019-04-29T02:45:11.373Z,101971.36
2019-04-29T02:46:13.588Z,101977.52
2019-04-29T02:47:15.832Z,101974.90
2019-04-29T02:48:18.055Z,101974.36
2019-04-29T02:49:20.274Z,101972.28
2019-04-29T02:50:22.472Z,101971.73
2019-04-29T02:51:48.554Z,101974.90
2019-04-29T02:52:50.753Z,101972.67
2019-04-29T02:53:52.974Z,101972.13
2019-04-29T02:54:57.893Z,101970.27
2019-04-29T02:56:00.390Z,101975.12
2019-04-29T02:57:16.195Z,101970.81
2019-04-29T02:58:27.249Z,101975.12
2019-04-29T02:59:33.043Z,101970.27
2019-04-29T03:00:54.186Z,101977.35
2019-04-29T03:02:17.854Z,101979.97
2019-04-29T03:03:26.007Z,101977.73
2019-04-29T03:04:30.735Z,101974.36
2019-04-29T03:05:40.032Z,101976.05
2019-04-29T03:06:42.242Z,101974.20
2019-04-29T03:07:44.474Z,101979.04
2019-04-29T03:08:46.680Z,101974.20
2019-04-29T03:09:48.879Z,101974.95
2019-04-29T03:10:51.067Z,101971.96
2019-04-29T03:11:53.270Z,101975.50
2019-04-29T03:12:55.476Z,101976.81
2019-04-29T03:13:57.666Z,101975.88
2019-04-29T03:14:59.868Z,101969.73
2019-04-29T03:16:03.482Z,101973.27
2019-04-29T03:17:05.702Z,101968.42
2019-04-29T03:18:07.885Z,101965.80
2019-04-29T03:19:16.637Z,101970.27
2019-04-29T03:20:27.200Z,101967.11
2019-04-29T03:21:33.169Z,101972.88
2019-04-29T03:22:35.498Z,101967.11
2019-04-29T03:23:37.734Z,101967.50
2019-04-29T03:24:39.950Z,101967.88
2019-04-29T03:25:42.143Z,101973.27
2019-04-29T03:26:44.336Z,101967.11
2019-04-29T03:27:46.583Z,101966.19
2019-04-29T03:28:48.787Z,101967.11
2019-04-29T03:29:50.999Z,101970.11
2019-04-29T03:30:53.206Z,101965.80
2019-04-29T03:31:56.747Z,101963.95
2019-04-29T03:32:58.915Z,101959.11
2019-04-29T03:34:01.382Z,101970.49
2019-04-29T03:35:03.713Z,101967.50
2019-04-29T03:36:05.918Z,101964.72
2019-04-29T03:37:08.127Z,101965.64
2019-04-29T03:38:10.362Z,101967.33
2019-04-29T03:39:12.565Z,101973.11
2019-04-29T03:40:14.821Z,101970.88
2019-04-29T03:41:17.034Z,101969.56
2019-04-29T03:42:19.298Z,101972.56
2019-04-29T03:43:21.524Z,101967.88
2019-04-29T03:44:23.716Z,101971.64
2019-04-29T03:45:25.936Z,101971.26
2019-04-29T03:46:28.153Z,101968.64
2019-04-29T03:47:30.326Z,101969.95
2019-04-29T03:48:32.529Z,101964.17
2019-04-29T03:49:34.730Z,101972.56
2019-04-29T03:50:36.931Z,101967.72
2019-04-29T03:51:39.174Z,101967.72
2019-04-29T03:52:41.378Z,101964.17
2019-04-29T03:53:43.572Z,101967.72
2019-04-29T03:54:45.784Z,101974.25
2019-04-29T03:55:47.969Z,101973.33
2019-04-29T03:56:50.201Z,101975.39
2019-04-29T03:57:52.405Z,101975.74
2019-04-29T03:58:54.591Z,101979.32
2019-04-29T03:59:57.171Z,101986.02
2019-04-29T04:01:10.685Z,101980.97
2019-04-29T04:02:41.171Z,101987.51
2019-04-29T04:03:47.203Z,101990.50
2019-04-29T04:05:20.554Z,101986.58
2019-04-29T04:06:34.482Z,101993.70
2019-04-29T04:07:52.282Z,101991.43
2019-04-29T04:09:13.987Z,101992.58
2019-04-29T04:10:16.176Z,101994.81
2019-04-29T04:11:18.389Z,102002.84
2019-04-29T04:12:20.603Z,102001.34
2019-04-29T04:13:22.849Z,102009.73
2019-04-29T04:14:25.060Z,102007.50
2019-04-29T04:15:27.273Z,102011.42
2019-04-29T04:16:48.417Z,102016.65
2019-04-29T04:17:57.421Z,102015.72
2019-04-29T04:19:07.225Z,102025.80
2019-04-29T04:20:09.422Z,102026.18
2019-04-29T04:21:11.631Z,102027.48
2019-04-29T04:22:13.821Z,102026.94
2019-04-29T04:23:16.018Z,102023.95
2019-04-29T04:24:18.247Z,102031.79
2019-04-29T04:25:20.454Z,102027.88
2019-04-29T04:26:22.663Z,102026.56
2019-04-29T04:27:24.863Z,102032.17
2019-04-29T04:28:27.059Z,102032.17
2019-04-29T04:29:29.274Z,102027.32
2019-04-29T04:30:31.506Z,102023.95
2019-04-29T04:31:33.802Z,102026.18
2019-04-29T04:32:36.016Z,102021.33
2019-04-29T04:33:38.201Z,102026.02
2019-04-29T04:34:40.433Z,102026.40
2019-04-29T04:35:42.642Z,102022.09
2019-04-29T04:36:44.821Z,102021.00
2019-04-29T04:37:47.035Z,102019.86
2019-04-29T04:38:49.231Z,102020.24
2019-04-29T04:39:51.456Z,102024.16
2019-04-29T04:41:00.861Z,102025.47
2019-04-29T04:42:03.061Z,102022.31
2019-04-29T04:43:05.242Z,102024.55
2019-04-29T04:44:07.437Z,102032.01
2019-04-29T04:45:09.684Z,102029.02
2019-04-29T04:46:11.890Z,102029.94
2019-04-29T04:47:14.090Z,102029.39
2019-04-29T04:48:16.309Z,102029.77
2019-04-29T04:49:18.599Z,102025.86
2019-04-29T04:50:20.863Z,102023.63
2019-04-29T04:51:23.042Z,102022.31
2019-04-29T04:52:25.243Z,102020.08
2019-04-29T04:53:27.433Z,102028.47
2019-04-29T04:54:31.547Z,102021.94
2019-04-29T04:55:35.118Z,102021.39
2019-04-29T04:56:37.314Z,102028.85
2019-04-29T04:57:39.519Z,102026.62
2019-04-29T04:58:41.720Z,102025.31
2019-04-29T04:59:43.903Z,102023.63
2019-04-29T05:00:46.115Z,102024.38
2019-04-29T05:01:48.321Z,102027.00
2019-04-29T05:02:50.517Z,102020.46
2019-04-29T05:03:52.721Z,102022.70
2019-04-29T05:04:54.917Z,102024.00
2019-04-29T05:05:57.189Z,102021.77
2019-04-29T05:06:59.407Z,102028.30
2019-04-29T05:08:01.547Z,102026.62
2019-04-29T05:09:05.704Z,102025.31
2019-04-29T05:10:07.903Z,102023.08
2019-04-29T05:11:10.145Z,102019.31
2019-04-29T05:12:14.145Z,102019.31
2019-04-29T05:13:27.316Z,102018.39
2019-04-29T05:14:20.063Z,102015.02
2019-04-29T05:15:22.251Z,102014.09
2019-04-29T05:16:24.503Z,102020.08
2019-04-29T05:17:26.691Z,102020.46
2019-04-29T05:18:28.896Z,102020.08
2019-04-29T05:19:31.087Z,102019.16
2019-04-29T05:20:33.324Z,102017.84
2019-04-29T05:21:35.579Z,102018.23
2019-04-29T05:22:37.783Z,102019.16
2019-04-29T05:23:41.631Z,102021.77
2019-04-29T05:24:43.825Z,102018.61
2019-04-29T05:25:46.035Z,102013.81
2019-04-29T05:26:48.257Z,102015.07
2019-04-29T05:27:50.381Z,102011.47
2019-04-29T05:28:52.498Z,102019.09
2019-04-29T05:29:54.692Z,102012.16
2019-04-29T05:30:56.921Z,102018.86
2019-04-29T05:31:59.155Z,102015.10
2019-04-29T05:33:01.365Z,102013.41
2019-04-29T05:34:03.591Z,102013.03
2019-04-29T05:35:08.653Z,102013.58
2019-04-29T05:36:45.221Z,102019.35
2019-04-29T05:37:58.690Z,102018.42
2019-04-29T05:39:19.844Z,102013.20
2019-04-29T05:40:40.062Z,102017.12
2019-04-29T05:41:42.271Z,102016.73
2019-04-29T05:42:44.515Z,102017.88
2019-04-29T05:43:56.727Z,102022.73
2019-04-29T05:45:19.427Z,102018.42
2019-04-29T05:46:30.711Z,102023.11
2019-04-29T05:47:41.673Z,102014.72
2019-04-29T05:48:43.909Z,102015.65
2019-04-29T05:50:06.596Z,102019.19
2019-04-29T05:51:32.513Z,102013.41
2019-04-29T05:52:43.641Z,102021.04
2019-04-29T05:53:54.677Z,102016.58
2019-04-29T05:54:51.777Z,102021.26
2019-04-29T05:55:53.986Z,102026.11
2019-04-29T05:56:56.193Z,102026.48
2019-04-29T05:58:11.461Z,102027.80
2019-04-29T05:59:14.003Z,102035.26
2019-04-29T06:00:18.882Z,102034.71
2019-04-29T06:01:22.908Z,102030.03
2019-04-29T06:02:33.162Z,102036.95
2019-04-29T06:03:28.955Z,102037.48
2019-04-29T06:04:31.184Z,102037.48
2019-04-29T06:05:33.381Z,102036.56
2019-04-29T06:06:35.622Z,102036.95
2019-04-29T06:07:37.805Z,102029.48
2019-04-29T06:08:40.634Z,102040.87
2019-04-29T06:09:42.992Z,102037.70
2019-04-29T06:10:45.193Z,102048.72
2019-04-29T06:11:47.401Z,102048.33
2019-04-29T06:12:49.612Z,102048.72
2019-04-29T06:13:51.819Z,102047.78
2019-04-29T06:14:54.040Z,102042.72
2019-04-29T06:15:56.254Z,102044.41
2019-04-29T06:17:02.884Z,102040.87
2019-04-29T06:18:02.317Z,102045.34
2019-04-29T06:19:06.038Z,102043.10
2019-04-29T06:20:08.389Z,102045.72
2019-04-29T06:21:10.590Z,102046.09
2019-04-29T06:22:12.804Z,102045.17
2019-04-29T06:23:14.998Z,102047.78
2019-04-29T06:24:17.198Z,102038.47
2019-04-29T06:25:19.442Z,102041.25
2019-04-29T06:26:21.639Z,102037.70
2019-04-29T06:27:23.849Z,102036.02
2019-04-29T06:28:28.043Z,102045.72
2019-04-29T06:29:29.895Z,102043.86
2019-04-29T06:30:32.135Z,102038.25
2019-04-29T06:31:34.339Z,102045.17
2019-04-29T06:32:36.566Z,102050.56
2019-04-29T06:33:38.773Z,102049.64
2019-04-29T06:34:41.810Z,102045.34
2019-04-29T06:35:47.428Z,102049.09
2019-04-29T06:36:47.975Z,102048.33
2019-04-29T06:37:50.163Z,102041.25
2019-04-29T06:38:52.379Z,102035.64
2019-04-29T06:39:54.575Z,102036.41
2019-04-29T06:40:56.813Z,102038.09
2019-04-29T06:41:59.012Z,102041.25
2019-04-29T06:43:01.226Z,102044.41
2019-04-29T06:44:06.699Z,102042.94
2019-04-29T06:45:07.321Z,102049.64
2019-04-29T06:46:09.563Z,102039.02
2019-04-29T06:47:11.758Z,102046.48
2019-04-29T06:48:13.974Z,102042.17
2019-04-29T06:49:16.188Z,102036.78
2019-04-29T06:50:18.394Z,102040.33
2019-04-29T06:51:20.612Z,102041.25
2019-04-29T06:52:23.908Z,102038.80
2019-04-29T06:53:26.274Z,102040.11
2019-04-29T06:54:28.471Z,102044.30
2019-04-29T06:55:30.670Z,102046.72
2019-04-29T06:56:32.888Z,102050.45
2019-04-29T06:57:35.094Z,102049.69
2019-04-29T06:58:38.580Z,102051.55
2019-04-29T06:59:43.009Z,102054.38
2019-04-29T07:00:44.672Z,102056.98
2019-04-29T07:01:46.874Z,102054.17
2019-04-29T07:02:49.902Z,102046.72
2019-04-29T07:03:55.733Z,102055.69
2019-04-29T07:04:56.830Z,102055.14
2019-04-29T07:05:59.034Z,102062.22
2019-04-29T07:07:01.258Z,102056.23
2019-04-29T07:08:03.455Z,102063.69
2019-04-29T07:09:06.511Z,102061.08
2019-04-29T07:10:08.715Z,102058.08
2019-04-29T07:11:10.935Z,102051.55
2019-04-29T07:12:13.991Z,102058.46
2019-04-29T07:13:18.094Z,102046.31
2019-04-29T07:14:20.191Z,102049.69
2019-04-29T07:15:22.414Z,102048.55
2019-04-29T07:16:26.814Z,102047.24
2019-04-29T07:17:28.491Z,102042.94
2019-04-29T07:18:30.672Z,102046.86
2019-04-29T07:19:32.860Z,102046.86
2019-04-29T07:20:37.024Z,102041.25
2019-04-29T07:21:41.868Z,102042.17
2019-04-29T07:22:42.802Z,102042.56
2019-04-29T07:23:45.016Z,102044.79
2019-04-29T07:24:47.271Z,102042.17
2019-04-29T07:25:49.470Z,102050.56
2019-04-29T07:26:51.674Z,102043.10
2019-04-29T07:27:53.892Z,102048.88
2019-04-29T07:28:56.115Z,102049.64
2019-04-29T07:30:01.841Z,102047.41
2019-04-29T07:31:03.082Z,102050.02
2019-04-29T07:32:09.471Z,102052.64
2019-04-29T07:33:09.411Z,102049.64
2019-04-29T07:34:11.633Z,102050.41
2019-04-29T07:35:13.825Z,102053.02
2019-04-29T07:36:18.657Z,102050.41
2019-04-29T07:37:19.893Z,102054.87
2019-04-29T07:38:22.132Z,102057.10
2019-04-29T07:39:26.705Z,102054.87
2019-04-29T07:40:28.302Z,102056.17
2019-04-29T07:41:30.511Z,102060.09
2019-04-29T07:42:33.380Z,102055.80
2019-04-29T07:43:38.653Z,102057.10
2019-04-29T07:44:48.761Z,102056.72
2019-04-29T07:46:19.645Z,102054.11
2019-04-29T07:47:24.961Z,102065.49
2019-04-29T07:48:25.721Z,102056.72
2019-04-29T07:49:27.939Z,102056.34
2019-04-29T07:50:30.174Z,102054.11
2019-04-29T07:51:34.780Z,102063.80
2019-04-29T07:52:36.243Z,102062.50
2019-04-29T07:53:45.076Z,102061.95
2019-04-29T07:54:42.349Z,102065.49
2019-04-29T07:55:44.577Z,102063.80
2019-04-29T07:56:46.803Z,102058.95
2019-04-29T07:57:52.135Z,102059.50
2019-04-29T07:58:52.885Z,102057.27
2019-04-29T07:59:55.087Z,102062.11
2019-04-29T08:00:57.308Z,102057.81
2019-04-29T08:02:00.154Z,102059.12
2019-04-29T08:03:03.351Z,102061.35
2019-04-29T08:04:05.555Z,102061.35
2019-04-29T08:05:07.763Z,102060.42
2019-04-29T08:06:09.964Z,102057.81
2019-04-29T08:07:12.251Z,102062.66
2019-04-29T08:08:16.560Z,102064.34
2019-04-29T08:09:18.291Z,102062.66
2019-04-29T08:10:23.545Z,102066.58
2019-04-29T08:11:24.346Z,102067.13
2019-04-29T08:12:26.563Z,102061.89
2019-04-29T08:13:28.763Z,102063.20
2019-04-29T08:14:30.962Z,102066.58
2019-04-29T08:15:36.813Z,102065.82
2019-04-29T08:16:37.031Z,102069.36
2019-04-29T08:17:39.262Z,102071.97
2019-04-29T08:18:41.466Z,102063.20
2019-04-29T08:19:43.677Z,102067.89
2019-04-29T08:20:45.893Z,102069.36
2019-04-29T08:21:49.831Z,102068.05
2019-04-29T08:22:52.030Z,102066.58
2019-04-29T08:23:57.095Z,102069.74
2019-04-29T08:24:59.298Z,102073.66
2019-04-29T08:26:02.557Z,102070.67
2019-04-29T08:27:05.368Z,102072.36
2019-04-29T08:28:07.597Z,102067.67
2019-04-29T08:29:09.800Z,102067.67
2019-04-29T08:30:12.788Z,102067.29
2019-04-29T08:31:16.542Z,102074.20
2019-04-29T08:32:18.942Z,102071.21
2019-04-29T08:33:21.160Z,102068.05
2019-04-29T08:34:24.366Z,102075.52
2019-04-29T08:35:26.689Z,102074.59
2019-04-29T08:36:30.643Z,102075.90
2019-04-29T08:37:33.070Z,102078.52
2019-04-29T08:38:38.313Z,102072.91
2019-04-29T08:39:40.244Z,102074.20
2019-04-29T08:40:45.218Z,102077.59
2019-04-29T08:41:47.205Z,102072.36
2019-04-29T08:42:55.333Z,102067.13
2019-04-29T08:44:16.828Z,102074.59
2019-04-29T08:45:38.998Z,102070.28
2019-04-29T08:46:51.849Z,102075.14
2019-04-29T08:47:54.621Z,102068.59
2019-04-29T08:48:56.981Z,102066.36
2019-04-29T08:50:00.903Z,102066.36
2019-04-29T08:51:03.094Z,102073.83
2019-04-29T08:52:05.493Z,102073.83
2019-04-29T08:53:07.743Z,102071.21
2019-04-29T08:54:09.968Z,102070.83
2019-04-29T08:55:12.173Z,102075.14
2019-04-29T08:56:14.400Z,102072.52
2019-04-29T08:57:16.607Z,102071.59
2019-04-29T08:58:18.822Z,102068.98
2019-04-29T08:59:24.659Z,102072.36
2019-04-29T09:00:24.969Z,102080.36
2019-04-29T09:01:29.356Z,102078.13
2019-04-29T09:02:35.083Z,102076.06
2019-04-29T09:03:40.572Z,102079.06
2019-04-29T09:04:52.532Z,102077.37
2019-04-29T09:05:46.231Z,102076.06
2019-04-29T09:06:46.472Z,102071.80
2019-04-29T09:07:52.386Z,102079.25
2019-04-29T09:08:55.409Z,102083.18
2019-04-29T09:10:01.631Z,102083.56
2019-04-29T09:11:00.551Z,102080.95
2019-04-29T09:12:02.764Z,102080.19
2019-04-29T09:13:04.980Z,102077.56
2019-04-29T09:14:07.215Z,102083.18
2019-04-29T09:15:09.519Z,102076.64
2019-04-29T09:16:11.752Z,102085.03
2019-04-29T09:17:20.660Z,102082.80
2019-04-29T09:18:17.913Z,102077.95
2019-04-29T09:19:21.825Z,102081.48
2019-04-29T09:20:24.014Z,102086.34
2019-04-29T09:21:26.224Z,102085.41
2019-04-29T09:22:30.023Z,102085.80
2019-04-29T09:23:32.875Z,102089.50
2019-04-29T09:24:35.583Z,102087.27
2019-04-29T09:26:02.987Z,102088.58
2019-04-29T09:27:09.502Z,102083.72
2019-04-29T09:28:16.096Z,102092.12
2019-04-29T09:29:31.874Z,102091.56
2019-04-29T09:30:34.082Z,102092.12
2019-04-29T09:31:36.287Z,102088.95
2019-04-29T09:32:39.976Z,102083.72
2019-04-29T09:33:44.078Z,102086.34
2019-04-29T09:34:46.181Z,102093.04
2019-04-29T09:35:48.398Z,102090.80
2019-04-29T09:36:50.600Z,102085.58
2019-04-29T09:37:53.767Z,102089.12
2019-04-29T09:38:56.643Z,102086.88
2019-04-29T09:39:58.891Z,102089.66
2019-04-29T09:41:20.028Z,102086.50
2019-04-29T09:42:50.152Z,102083.89
2019-04-29T09:44:15.794Z,102087.05
2019-04-29T09:45:36.983Z,102078.82
2019-04-29T09:46:39.278Z,102084.05
2019-04-29T09:47:41.477Z,102083.29
2019-04-29T09:48:43.677Z,102083.67
2019-04-29T09:49:45.889Z,102078.44
2019-04-29T09:50:48.115Z,102078.44
2019-04-29T09:51:50.318Z,102083.67
2019-04-29T09:52:52.522Z,102076.37
2019-04-29T09:53:54.728Z,102077.13
2019-04-29T09:54:59.589Z,102075.44
2019-04-29T09:56:00.819Z,102071.91
2019-04-29T09:57:03.047Z,102075.61
2019-04-29T09:58:05.251Z,102075.98
2019-04-29T09:59:26.492Z,102071.14
2019-04-29T10:00:50.453Z,102074.30
2019-04-29T10:02:00.188Z,102067.37
2019-04-29T10:03:07.415Z,102075.61
2019-04-29T10:04:34.522Z,102068.52
2019-04-29T10:05:40.062Z,102068.14
2019-04-29T10:06:42.877Z,102074.30
2019-04-29T10:07:45.093Z,102067.16
2019-04-29T10:08:47.299Z,102059.31
2019-04-29T10:09:56.925Z,102069.02
2019-04-29T10:10:53.364Z,102058.55
2019-04-29T10:11:55.610Z,102060.78
2019-04-29T10:12:57.800Z,102059.48
2019-04-29T10:14:00.011Z,102063.02
2019-04-29T10:15:02.308Z,102053.86
2019-04-29T10:16:20.435Z,102049.94
2019-04-29T10:17:57.045Z,102050.87
2019-04-29T10:19:13.732Z,102051.83
2019-04-29T10:20:33.519Z,102049.21
2019-04-29T10:21:35.771Z,102050.14
2019-04-29T10:22:37.981Z,102046.22
2019-04-29T10:23:40.387Z,102047.14
2019-04-29T10:24:42.603Z,102054.22
2019-04-29T10:25:44.864Z,102040.98
2019-04-29T10:26:47.070Z,102042.84
2019-04-29T10:27:49.282Z,102042.45
2019-04-29T10:28:55.903Z,102040.60
2019-04-29T10:29:58.100Z,102042.84
2019-04-29T10:31:00.310Z,102048.06
2019-04-29T10:32:06.892Z,102041.14
2019-04-29T10:33:06.756Z,102046.00
2019-04-29T10:34:09.783Z,102044.30
2019-04-29T10:35:12.115Z,102038.70
2019-04-29T10:36:15.995Z,102046.38
2019-04-29T10:37:18.235Z,102043.22
2019-04-29T10:38:20.443Z,102040.41
2019-04-29T10:39:42.349Z,102037.45
2019-04-29T10:41:02.327Z,102037.06
2019-04-29T10:42:05.396Z,102042.84
2019-04-29T10:43:38.934Z,102040.06
2019-04-29T10:45:00.070Z,102038.75
2019-04-29T10:46:23.794Z,102035.17
2019-04-29T10:47:50.963Z,102040.98
2019-04-29T10:48:59.092Z,102035.75
2019-04-29T10:50:04.956Z,102035.75
2019-04-29T10:51:08.929Z,102040.06
2019-04-29T10:52:11.136Z,102036.48
2019-04-29T10:53:15.601Z,102039.09
2019-04-29T10:54:17.410Z,102029.59
2019-04-29T10:55:20.725Z,102036.13
2019-04-29T10:56:23.027Z,102029.59
2019-04-29T10:57:25.237Z,102031.25
2019-04-29T10:58:30.447Z,102029.94
2019-04-29T10:59:36.045Z,102026.60
2019-04-29T11:00:45.898Z,102027.33
2019-04-29T11:02:08.989Z,102025.29
2019-04-29T11:03:06.203Z,102024.37
2019-04-29T11:04:08.920Z,102025.67
2019-04-29T11:05:30.132Z,102026.98
2019-04-29T11:06:38.368Z,102025.29
2019-04-29T11:07:40.830Z,102026.98
2019-04-29T11:09:01.363Z,102026.60
2019-04-29T11:10:08.571Z,102029.94
2019-04-29T11:11:22.752Z,102030.91
2019-04-29T11:12:17.508Z,102030.46
2019-04-29T11:13:19.731Z,102032.70
2019-04-29T11:14:24.677Z,102029.70
2019-04-29T11:15:32.654Z,102026.54
2019-04-29T11:16:46.104Z,102029.54
2019-04-29T11:17:39.540Z,102024.69
2019-04-29T11:18:42.378Z,102032.53
2019-04-29T11:19:44.607Z,102027.30
2019-04-29T11:20:48.787Z,102023.37
2019-04-29T11:21:50.692Z,102022.84
2019-04-29T11:22:58.847Z,102029.00
2019-04-29T11:24:14.125Z,102025.07
2019-04-29T11:25:40.464Z,102026.77
2019-04-29T11:27:11.642Z,102028.06
2019-04-29T11:28:08.087Z,102027.69
2019-04-29T11:29:10.299Z,102026.77
2019-04-29T11:30:15.655Z,102032.92
2019-04-29T11:31:19.350Z,102034.61
2019-04-29T11:32:34.946Z,102033.30
2019-04-29T11:33:59.144Z,102030.30
2019-04-29T11:35:24.539Z,102025.45
2019-04-29T11:36:28.734Z,102023.22
2019-04-29T11:37:30.947Z,102027.69
2019-04-29T11:38:37.944Z,102026.37
2019-04-29T11:39:37.125Z,102028.61
2019-04-29T11:40:43.473Z,102031.61
2019-04-29T11:41:44.973Z,102028.06
2019-04-29T11:42:47.212Z,102024.69
2019-04-29T11:43:51.085Z,102028.23
2019-04-29T11:44:57.221Z,102026.92
2019-04-29T11:45:57.203Z,102029.54
2019-04-29T11:46:59.434Z,102024.69
2019-04-29T11:48:01.770Z,102027.69
2019-04-29T11:49:04.798Z,102023.37
2019-04-29T11:50:14.487Z,102020.77
2019-04-29T11:51:34.296Z,102020.77
2019-04-29T11:52:34.123Z,102025.61
2019-04-29T11:53:36.325Z,102027.30
2019-04-29T11:54:38.540Z,102026.92
2019-04-29T11:55:43.414Z,102024.30
2019-04-29T11:56:44.604Z,102019.45
2019-04-29T11:57:54.543Z,102020.00
2019-04-29T11:59:03.226Z,102024.30
2019-04-29T12:00:23.702Z,102022.62
2019-04-29T12:01:39.148Z,102016.08
2019-04-29T12:02:45.930Z,102021.31
2019-04-29T12:03:51.477Z,102018.70
2019-04-29T12:04:59.112Z,102024.85
2019-04-29T12:06:05.160Z,102017.38
2019-04-29T12:07:07.318Z,102017.00
2019-04-29T12:08:15.995Z,102025.78
2019-04-29T12:09:13.377Z,102013.08
2019-04-29T12:10:15.583Z,102019.23
2019-04-29T12:11:17.840Z,102023.16
2019-04-29T12:12:21.618Z,102017.93
2019-04-29T12:13:31.091Z,102012.70
2019-04-29T12:14:51.974Z,102014.00
2019-04-29T12:16:02.552Z,102017.55
2019-04-29T12:17:22.409Z,102011.77
2019-04-29T12:18:28.283Z,102006.70
2019-04-29T12:19:32.697Z,102011.94
2019-04-29T12:20:54.399Z,102010.08
2019-04-29T12:21:56.611Z,102005.23
2019-04-29T12:22:58.820Z,102000.92